Time;durP1;ratioP1;P1;durP2;ratioP2;P2;SDS_P1;SDS_P2;PMS_P1;PMS_P2;Temp;Humidity;BMP_temperature;BMP_pressure;BME280_temperature;BME280_humidity;BME280_pressure;Samples;Min_cycle;Max_cycle;Signal;HPM_P1;HPM_P2
2021/01/24 00:02:22;;;;;;;58.55;5.50;;;2.90;27.60;;;;;;5074111;28;20672;-67
2021/01/24 00:04:48;;;;;;;59.22;5.50;;;2.90;26.60;;;;;;5074151;28;20270;-67
2021/01/24 00:07:14;;;;;;;60.20;5.30;;;2.90;26.20;;;;;;5074023;28;20205;-67
2021/01/24 00:09:41;;;;;;;60.65;5.65;;;2.80;25.90;;;;;;5074457;28;20200;-67
2021/01/24 00:12:07;;;;;;;58.00;5.20;;;2.80;24.60;;;;;;5074018;28;20213;-67
2021/01/24 00:14:34;;;;;;;58.13;4.47;;;2.70;25.00;;;;;;5074066;28;20221;-67
2021/01/24 00:17:00;;;;;;;59.08;5.28;;;2.70;27.80;;;;;;5073982;28;20209;-67
2021/01/24 00:19:27;;;;;;;59.42;5.22;;;2.70;30.90;;;;;;5073906;28;20609;-67
2021/01/24 00:21:54;;;;;;;58.28;4.88;;;2.60;36.00;;;;;;5074107;28;20629;-67
2021/01/24 00:24:20;;;;;;;58.75;5.10;;;2.70;38.10;;;;;;5073969;28;20229;-68
2021/01/24 00:26:46;;;;;;;58.65;4.72;;;2.70;38.40;;;;;;5073957;28;20589;-67
2021/01/24 00:29:13;;;;;;;59.08;5.28;;;2.80;37.50;;;;;;5073823;28;20205;-68
2021/01/24 00:31:39;;;;;;;57.70;5.38;;;2.70;36.70;;;;;;5073848;28;20205;-68
2021/01/24 00:34:05;;;;;;;58.10;4.90;;;2.70;37.70;;;;;;5073317;28;20247;-68
2021/01/24 00:36:33;;;;;;;58.72;4.97;;;2.70;38.30;;;;;;5073724;28;20225;-68
2021/01/24 00:39:00;;;;;;;58.00;5.03;;;2.70;38.00;;;;;;5073665;28;20205;-68
2021/01/24 00:41:26;;;;;;;57.70;5.70;;;2.70;37.80;;;;;;5073129;28;20205;-68
2021/01/24 00:43:52;;;;;;;59.72;5.28;;;2.70;36.20;;;;;;5073365;28;20323;-68
2021/01/24 00:46:18;;;;;;;58.35;4.80;;;2.70;36.70;;;;;;5073472;28;20197;-68
2021/01/24 00:48:45;;;;;;;59.05;5.00;;;2.70;36.30;;;;;;5073181;28;20207;-68
2021/01/24 00:51:11;;;;;;;59.10;5.20;;;2.70;36.80;;;;;;5073313;28;20205;-68
2021/01/24 00:53:38;;;;;;;58.92;5.05;;;2.70;37.80;;;;;;5073243;28;20308;-68
2021/01/24 00:56:05;;;;;;;57.33;4.20;;;2.70;38.30;;;;;;5073271;28;20220;-68
2021/01/24 00:58:31;;;;;;;57.67;4.15;;;2.60;38.50;;;;;;5073239;28;20254;-68
2021/01/24 01:00:58;;;;;;;56.85;3.70;;;2.70;35.30;;;;;;5073250;28;20266;-68
2021/01/24 01:03:24;;;;;;;57.80;4.22;;;2.70;31.70;;;;;;5072872;28;20225;-68
2021/01/24 01:05:50;;;;;;;58.05;4.13;;;2.60;31.00;;;;;;5073007;28;20243;-68
2021/01/24 01:08:17;;;;;;;57.35;4.25;;;2.60;30.90;;;;;;5072927;28;20209;-68
2021/01/24 01:10:44;;;;;;;57.58;4.65;;;2.60;31.50;;;;;;5073051;28;20201;-68
2021/01/24 01:13:10;;;;;;;56.95;3.80;;;2.60;32.20;;;;;;5072660;28;20269;-68
2021/01/24 01:15:37;;;;;;;57.03;3.85;;;2.60;33.80;;;;;;5072757;28;20217;-68
2021/01/24 01:18:03;;;;;;;57.28;4.10;;;2.60;32.40;;;;;;5072758;28;20217;-68
2021/01/24 01:20:30;;;;;;;57.03;4.22;;;2.60;31.70;;;;;;5072687;28;20307;-68
2021/01/24 01:22:56;;;;;;;57.05;4.05;;;2.60;31.70;;;;;;5072659;28;20837;-68
2021/01/24 01:25:23;;;;;;;58.30;4.25;;;2.70;31.20;;;;;;5072535;28;20205;-68
2021/01/24 01:27:50;;;;;;;57.58;4.60;;;2.70;30.70;;;;;;5072568;28;20676;-68
2021/01/24 01:30:18;;;;;;;57.03;4.07;;;2.70;26.90;;;;;;5072543;28;20255;-69
2021/01/24 01:32:44;;;;;;;56.60;4.20;;;2.80;26.70;;;;;;5072038;28;20205;-68
2021/01/24 01:35:11;;;;;;;57.17;3.75;;;2.70;26.40;;;;;;5072599;28;20312;-68
2021/01/24 01:37:37;;;;;;;56.97;3.90;;;2.70;26.40;;;;;;5072575;28;20216;-68
2021/01/24 01:40:05;;;;;;;57.17;3.53;;;2.80;24.70;;;;;;5072462;28;20216;-69
2021/01/24 01:42:32;;;;;;;56.38;3.22;;;2.80;22.60;;;;;;5072183;28;20684;-69
2021/01/24 01:44:59;;;;;;;56.88;3.78;;;2.80;22.80;;;;;;5072057;28;20243;-69
2021/01/24 01:47:27;;;;;;;57.25;3.70;;;2.80;20.00;;;;;;5072263;28;20209;-69
2021/01/24 01:49:55;;;;;;;57.75;3.90;;;2.80;16.10;;;;;;5072283;28;20272;-69
2021/01/24 01:52:24;;;;;;;56.88;3.50;;;2.80;17.00;;;;;;5071834;28;20239;-69
2021/01/24 01:54:51;;;;;;;55.88;3.30;;;2.80;16.70;;;;;;5072014;28;20762;-69
2021/01/24 01:57:18;;;;;;;56.88;3.45;;;2.80;15.80;;;;;;5072136;28;20207;-69
2021/01/24 01:59:45;;;;;;;57.08;3.58;;;2.80;13.50;;;;;;5072445;28;20201;-69
2021/01/24 02:02:28;;;;;;;56.20;3.28;;;2.80;7.50;;;;;;5072137;28;20620;-69
2021/01/24 02:05:00;;;;;;;56.95;3.33;;;2.80;4.90;;;;;;5071992;28;20227;-69
2021/01/24 02:07:32;;;;;;;56.17;3.65;;;2.90;4.40;;;;;;5071979;28;20212;-69
2021/01/24 02:10:06;;;;;;;56.55;3.08;;;2.90;1.30;;;;;;5072453;28;20211;-69
2021/01/24 02:12:39;;;;;;;57.55;3.60;;;3.00;1.00;;;;;;5071694;28;20208;-69
2021/01/24 02:15:08;;;;;;;56.25;3.33;;;3.00;1.00;;;;;;5072022;28;20303;-69
2021/01/24 02:17:38;;;;;;;56.45;3.50;;;3.00;1.00;;;;;;5071832;28;20287;-69
2021/01/24 02:20:09;;;;;;;56.83;3.35;;;3.00;1.00;;;;;;5072004;28;20230;-69
2021/01/24 02:22:40;;;;;;;56.38;3.60;;;3.10;1.00;;;;;;5071422;28;20644;-69
2021/01/24 02:25:14;;;;;;;56.17;3.40;;;3.10;1.00;;;;;;5071804;28;20251;-69
2021/01/24 02:27:47;;;;;;;56.92;3.40;;;3.10;1.00;;;;;;5071923;28;20204;-69
2021/01/24 02:30:23;;;;;;;56.38;3.15;;;3.10;1.00;;;;;;5071707;28;20296;-69
2021/01/24 02:32:57;;;;;;;55.75;3.00;;;3.10;1.00;;;;;;5071467;28;20254;-69
2021/01/24 02:35:28;;;;;;;55.58;2.90;;;3.10;1.00;;;;;;5071451;28;20221;-69
2021/01/24 02:37:57;;;;;;;56.00;2.80;;;3.10;1.00;;;;;;5071754;28;20583;-69
2021/01/24 02:40:24;;;;;;;56.08;2.80;;;3.10;1.00;;;;;;5071607;28;20250;-69
2021/01/24 02:42:51;;;;;;;55.47;2.30;;;3.00;1.00;;;;;;5071349;28;20205;-69
2021/01/24 02:45:20;;;;;;;55.47;2.40;;;3.00;1.00;;;;;;5071476;28;20268;-69
2021/01/24 02:47:48;;;;;;;55.50;2.40;;;2.90;1.00;;;;;;5071402;28;20315;-69
2021/01/24 02:50:14;;;;;;;55.40;2.40;;;2.80;1.00;;;;;;5071402;28;20232;-69
2021/01/24 02:52:41;;;;;;;56.92;2.30;;;2.70;1.00;;;;;;5071380;28;20270;-69
2021/01/24 02:55:09;;;;;;;55.08;2.47;;;2.70;1.00;;;;;;5071344;28;20220;-69
2021/01/24 02:57:36;;;;;;;55.40;2.30;;;2.60;1.00;;;;;;5071428;28;20262;-69
2021/01/24 03:00:04;;;;;;;55.17;2.50;;;2.50;1.00;;;;;;5071248;28;20212;-69
2021/01/24 03:02:32;;;;;;;55.67;2.33;;;2.50;1.00;;;;;;5071133;28;20247;-69
2021/01/24 03:04:58;;;;;;;55.95;2.45;;;2.50;1.00;;;;;;5075030;28;20200;-69
2021/01/24 03:07:25;;;;;;;55.50;2.33;;;2.40;1.00;;;;;;5075502;28;20215;-69
2021/01/24 03:09:51;;;;;;;55.10;2.20;;;2.40;1.00;;;;;;5075201;28;20208;-69
2021/01/24 03:12:18;;;;;;;55.70;2.70;;;2.30;1.00;;;;;;5075142;28;20766;-69
2021/01/24 03:14:46;;;;;;;55.70;2.58;;;2.20;1.00;;;;;;5074915;28;20229;-69
2021/01/24 03:17:16;;;;;;;56.22;2.90;;;2.20;1.00;;;;;;5075353;28;20212;-69
2021/01/24 03:19:45;;;;;;;56.10;2.70;;;2.10;1.00;;;;;;5075440;28;20209;-69
2021/01/24 03:22:14;;;;;;;56.28;2.92;;;2.10;1.00;;;;;;5075097;28;20257;-69
2021/01/24 03:24:43;;;;;;;55.80;2.63;;;2.10;1.00;;;;;;5075272;28;20225;-69
2021/01/24 03:27:10;;;;;;;56.10;3.22;;;2.10;1.00;;;;;;5075101;28;20208;-69
2021/01/24 03:29:37;;;;;;;56.53;3.72;;;2.10;1.00;;;;;;5075476;28;20213;-69
2021/01/24 03:32:04;;;;;;;57.33;3.90;;;2.20;1.00;;;;;;5075369;28;20295;-69
2021/01/24 03:34:35;;;;;;;56.45;3.58;;;2.10;1.00;;;;;;5074972;28;20310;-69
2021/01/24 03:37:02;;;;;;;57.25;4.40;;;2.10;1.00;;;;;;5075037;28;20224;-69
2021/01/24 03:39:29;;;;;;;57.10;3.55;;;2.10;1.00;;;;;;5074937;28;20250;-69
2021/01/24 03:41:55;;;;;;;57.65;4.25;;;2.00;1.00;;;;;;5074885;28;20590;-69
2021/01/24 03:44:21;;;;;;;58.17;4.22;;;2.00;1.00;;;;;;5074703;28;20225;-69
2021/01/24 03:46:48;;;;;;;62.38;4.68;;;1.90;1.00;;;;;;5074828;28;20197;-69
2021/01/24 03:49:14;;;;;;;57.58;4.00;;;1.80;1.00;;;;;;5074550;28;20228;-69
2021/01/24 03:51:41;;;;;;;57.30;4.82;;;1.70;1.00;;;;;;5074584;28;20209;-69
2021/01/24 03:54:08;;;;;;;57.95;4.90;;;1.70;1.00;;;;;;5074376;28;20221;-69
2021/01/24 03:56:35;;;;;;;58.38;5.35;;;1.70;1.00;;;;;;5074620;28;20225;-69
2021/01/24 03:59:01;;;;;;;59.13;4.75;;;1.70;1.00;;;;;;5074553;28;20205;-69
2021/01/24 04:01:29;;;;;;;58.28;5.18;;;1.60;1.00;;;;;;5074430;28;20248;-69
2021/01/24 04:03:55;;;;;;;57.55;4.55;;;1.60;1.00;;;;;;5074312;28;20221;-69
2021/01/24 04:06:22;;;;;;;58.83;5.50;;;1.60;1.00;;;;;;5074398;28;20682;-69
2021/01/24 04:08:48;;;;;;;62.08;5.03;;;1.60;1.00;;;;;;5074071;28;20292;-69
2021/01/24 04:11:15;;;;;;;59.75;4.45;;;1.70;1.00;;;;;;5074516;28;20239;-69
2021/01/24 04:13:41;;;;;;;58.42;4.43;;;1.60;1.00;;;;;;5074322;28;20281;-69
2021/01/24 04:16:08;;;;;;;58.05;4.57;;;1.60;1.00;;;;;;5073221;28;20777;-69
2021/01/24 04:18:34;;;;;;;57.53;4.82;;;1.60;1.00;;;;;;5074032;28;20283;-69
2021/01/24 04:21:00;;;;;;;56.90;3.70;;;1.70;1.00;;;;;;5074068;28;20207;-69
2021/01/24 04:23:27;;;;;;;58.22;4.30;;;1.70;1.00;;;;;;5073729;28;20320;-69
2021/01/24 04:25:53;;;;;;;59.03;4.75;;;1.70;1.00;;;;;;5073854;28;20687;-69
2021/01/24 04:28:20;;;;;;;56.90;4.18;;;1.70;1.00;;;;;;5074050;28;20213;-69
2021/01/24 04:30:46;;;;;;;57.90;4.30;;;1.60;1.00;;;;;;5073788;28;20672;-69
2021/01/24 04:33:13;;;;;;;57.35;3.95;;;1.50;1.00;;;;;;5073435;28;20236;-69
2021/01/24 04:35:39;;;;;;;57.38;4.40;;;1.50;1.00;;;;;;5073689;28;20316;-69
2021/01/24 04:38:05;;;;;;;58.17;4.78;;;1.50;1.00;;;;;;5073541;28;20232;-69
2021/01/24 04:40:32;;;;;;;58.33;4.45;;;1.50;1.00;;;;;;5073768;28;20236;-69
2021/01/24 04:42:58;;;;;;;58.00;4.75;;;1.40;1.00;;;;;;5073509;28;20228;-69
2021/01/24 04:45:26;;;;;;;59.90;4.63;;;1.50;1.00;;;;;;5073526;28;20292;-69
2021/01/24 04:47:53;;;;;;;58.78;4.80;;;1.50;1.00;;;;;;5073482;28;20583;-69
2021/01/24 04:50:20;;;;;;;56.65;4.00;;;1.40;1.00;;;;;;5073192;28;20209;-69
2021/01/24 04:52:47;;;;;;;57.28;3.92;;;1.30;1.00;;;;;;5073410;28;20209;-69
2021/01/24 04:55:15;;;;;;;58.33;4.32;;;1.30;1.00;;;;;;5073341;28;20205;-69
2021/01/24 04:57:42;;;;;;;57.95;4.35;;;1.40;1.00;;;;;;5073450;28;20211;-69
2021/01/24 05:00:11;;;;;;;61.35;4.63;;;1.30;1.00;;;;;;5073102;28;20205;-69
2021/01/24 05:02:39;;;;;;;56.63;4.15;;;1.30;1.00;;;;;;5072989;28;20244;-69
2021/01/24 05:05:06;;;;;;;57.97;4.57;;;1.30;1.00;;;;;;5072926;28;20550;-69
2021/01/24 05:07:32;;;;;;;57.30;3.80;;;1.30;1.00;;;;;;5073239;28;20675;-69
2021/01/24 05:09:59;;;;;;;60.35;4.00;;;1.30;1.00;;;;;;5073171;28;20262;-69
2021/01/24 05:12:28;;;;;;;58.42;4.00;;;1.20;1.00;;;;;;5072978;28;20212;-68
2021/01/24 05:14:57;;;;;;;57.03;4.00;;;1.20;1.00;;;;;;5072577;28;20738;-69
2021/01/24 05:17:24;;;;;;;57.33;3.92;;;1.20;1.00;;;;;;5072672;28;20314;-69
2021/01/24 05:19:52;;;;;;;56.65;3.70;;;1.10;1.00;;;;;;5072924;28;20209;-69
2021/01/24 05:22:19;;;;;;;56.03;3.60;;;1.10;1.00;;;;;;5072817;28;20299;-68
2021/01/24 05:24:47;;;;;;;56.95;3.92;;;1.10;1.00;;;;;;5072763;28;20239;-68
2021/01/24 05:27:14;;;;;;;56.20;3.05;;;1.10;1.00;;;;;;5072661;28;20201;-69
2021/01/24 05:29:41;;;;;;;58.70;4.53;;;1.20;1.00;;;;;;5072544;28;20244;-69
2021/01/24 05:32:09;;;;;;;56.55;3.65;;;1.30;1.00;;;;;;5072284;28;20205;-69
2021/01/24 05:34:35;;;;;;;57.42;4.00;;;1.30;1.00;;;;;;5072312;28;20233;-69
2021/01/24 05:37:03;;;;;;;58.83;5.68;;;1.30;1.00;;;;;;5072279;28;20240;-69
2021/01/24 05:39:32;;;;;;;56.95;4.45;;;1.20;1.00;;;;;;5072323;28;20208;-69
2021/01/24 05:42:00;;;;;;;57.45;3.78;;;1.30;1.00;;;;;;5072299;28;20205;-69
2021/01/24 05:44:27;;;;;;;56.45;3.63;;;1.30;1.00;;;;;;5072191;28;20316;-68
2021/01/24 05:46:55;;;;;;;57.22;4.22;;;1.30;1.00;;;;;;5072111;28;20209;-69
2021/01/24 05:49:24;;;;;;;81.00;4.50;;;1.40;1.00;;;;;;5072411;28;20216;-69
2021/01/24 05:52:00;;;;;;;56.47;4.35;;;1.40;1.00;;;;;;5072168;28;20239;-69
2021/01/24 05:54:39;;;;;;;56.75;4.18;;;1.30;1.00;;;;;;5071943;28;20225;-69
2021/01/24 05:57:05;;;;;;;60.50;5.15;;;1.20;1.00;;;;;;5071883;28;20517;-68
2021/01/24 05:59:48;;;;;;;57.22;4.05;;;1.20;1.00;;;;;;5071949;28;20205;-68
2021/01/24 06:02:14;;;;;;;57.65;4.55;;;1.10;1.00;;;;;;5072078;28;20616;-68
2021/01/24 06:04:42;;;;;;;57.35;4.65;;;1.00;1.00;;;;;;5072155;28;20224;-68
2021/01/24 06:07:08;;;;;;;58.55;4.85;;;1.00;1.00;;;;;;5071906;28;20197;-69
2021/01/24 06:09:34;;;;;;;56.80;4.32;;;0.90;1.00;;;;;;5071873;28;20265;-68
2021/01/24 06:12:03;;;;;;;58.30;4.75;;;0.80;1.00;;;;;;5072050;28;20205;-68
2021/01/24 06:14:34;;;;;;;58.08;4.47;;;0.70;1.00;;;;;;5071720;28;20228;-68
2021/01/24 06:17:04;;;;;;;57.03;4.18;;;0.70;1.00;;;;;;5071802;28;20225;-68
2021/01/24 06:19:36;;;;;;;62.58;5.28;;;0.70;1.00;;;;;;5071871;28;20295;-68
2021/01/24 06:22:04;;;;;;;57.08;4.05;;;0.70;1.00;;;;;;5071654;28;20212;-68
2021/01/24 06:24:37;;;;;;;59.85;4.25;;;0.80;1.00;;;;;;5071937;28;20232;-68
2021/01/24 06:27:07;;;;;;;58.92;4.38;;;0.80;1.00;;;;;;5071859;28;20201;-68
2021/01/24 06:29:35;;;;;;;59.78;5.18;;;0.70;1.00;;;;;;5071720;28;20292;-68
2021/01/24 06:32:01;;;;;;;58.03;4.93;;;0.80;1.00;;;;;;5071528;28;20688;-69
2021/01/24 06:34:35;;;;;;;58.90;4.60;;;0.80;1.00;;;;;;5071456;28;20324;-69
2021/01/24 06:37:08;;;;;;;57.75;5.03;;;0.80;1.00;;;;;;5071777;28;20264;-69
2021/01/24 06:39:41;;;;;;;58.97;4.95;;;0.80;1.00;;;;;;5071081;28;20213;-68
2021/01/24 06:42:08;;;;;;;58.97;5.55;;;0.90;1.00;;;;;;5071732;28;20211;-69
2021/01/24 06:44:39;;;;;;;58.03;4.93;;;0.90;1.00;;;;;;5071362;28;20225;-69
2021/01/24 06:47:07;;;;;;;58.50;4.78;;;0.90;1.00;;;;;;5071359;28;20291;-69
2021/01/24 06:49:42;;;;;;;61.40;5.45;;;0.90;1.00;;;;;;5071755;28;20305;-69
2021/01/24 06:52:16;;;;;;;57.67;4.50;;;0.80;1.00;;;;;;5071363;28;20215;-69
2021/01/24 06:54:42;;;;;;;59.88;4.55;;;0.80;1.00;;;;;;5071518;28;20635;-69
2021/01/24 06:57:10;;;;;;;59.38;5.40;;;0.80;1.00;;;;;;5071232;28;20224;-69
2021/01/24 06:59:36;;;;;;;63.38;5.25;;;0.70;1.00;;;;;;5071138;28;20243;-69
2021/01/24 07:02:26;;;;;;;64.22;5.72;;;0.70;1.00;;;;;;5071409;28;20205;-69
2021/01/24 07:05:13;;;;;;;58.58;5.38;;;0.60;1.00;;;;;;5071186;28;20727;-69
2021/01/24 07:07:41;;;;;;;59.47;5.45;;;0.60;1.00;;;;;;5071331;28;20696;-70
2021/01/24 07:10:10;;;;;;;57.53;4.85;;;0.50;1.00;;;;;;5071183;28;20231;-69
2021/01/24 07:12:40;;;;;;;58.78;4.90;;;0.50;1.00;;;;;;5071031;28;20205;-69
2021/01/24 07:15:08;;;;;;;58.08;5.70;;;0.50;1.00;;;;;;5071150;28;20213;-69
2021/01/24 07:17:36;;;;;;;59.67;4.90;;;0.50;1.00;;;;;;5071313;28;20228;-69
2021/01/24 07:20:05;;;;;;;59.17;5.45;;;0.50;1.00;;;;;;5071224;28;20243;-69
2021/01/24 07:22:32;;;;;;;58.42;4.88;;;0.50;1.00;;;;;;5070956;28;20262;-69
2021/01/24 07:24:58;;;;;;;57.25;4.60;;;0.50;1.00;;;;;;5071101;28;20205;-69
2021/01/24 07:27:27;;;;;;;59.78;4.30;;;0.60;1.00;;;;;;5071374;28;20205;-69
2021/01/24 07:29:54;;;;;;;62.40;4.60;;;0.70;1.00;;;;;;5071276;28;20213;-70
2021/01/24 07:32:21;;;;;;;60.33;5.50;;;0.70;1.00;;;;;;5071122;28;20211;-69
2021/01/24 07:34:51;;;;;;;59.22;4.82;;;0.70;1.00;;;;;;5070535;28;20255;-69
2021/01/24 07:37:17;;;;;;;58.38;4.50;;;0.70;1.00;;;;;;5071020;28;20229;-69
2021/01/24 07:39:46;;;;;;;59.80;4.28;;;0.80;1.00;;;;;;5071211;28;20201;-69
2021/01/24 07:42:13;;;;;;;60.03;4.07;;;0.80;1.00;;;;;;5071032;28;20594;-69
2021/01/24 07:44:40;;;;;;;57.33;4.32;;;0.80;1.00;;;;;;5071000;28;20578;-69
2021/01/24 07:47:09;;;;;;;58.35;4.45;;;0.80;1.00;;;;;;5070945;28;20216;-69
2021/01/24 07:49:35;;;;;;;58.72;5.10;;;0.90;1.00;;;;;;5070790;28;20209;-69
2021/01/24 07:52:02;;;;;;;57.25;4.78;;;0.90;1.00;;;;;;5074453;28;20205;-69
2021/01/24 07:54:29;;;;;;;58.92;4.30;;;0.80;1.00;;;;;;5074413;28;20221;-69
2021/01/24 07:56:55;;;;;;;56.15;3.92;;;0.90;1.00;;;;;;5074343;28;20228;-67
2021/01/24 07:59:22;;;;;;;57.67;4.95;;;1.00;1.00;;;;;;5074339;28;20213;-67
2021/01/24 08:01:48;;;;;;;60.30;4.55;;;1.10;1.00;;;;;;5074387;28;20213;-69
2021/01/24 08:04:15;;;;;;;59.95;6.07;;;1.10;1.00;;;;;;5074096;28;20235;-69
2021/01/24 08:06:41;;;;;;;58.03;4.68;;;1.20;1.00;;;;;;5074314;28;20240;-69
2021/01/24 08:09:09;;;;;;;58.13;4.68;;;1.20;1.00;;;;;;5074287;28;20209;-69
2021/01/24 08:11:36;;;;;;;57.38;4.30;;;1.30;1.00;;;;;;5074283;28;20209;-69
2021/01/24 08:14:03;;;;;;;58.20;4.72;;;1.40;1.00;;;;;;5073875;28;20602;-69
2021/01/24 08:16:34;;;;;;;58.80;4.43;;;1.40;1.00;;;;;;5073918;28;20221;-69
2021/01/24 08:19:03;;;;;;;57.75;3.50;;;1.40;1.00;;;;;;5074200;28;20236;-69
2021/01/24 08:21:31;;;;;;;58.67;4.32;;;1.50;1.00;;;;;;5073942;28;20228;-69
2021/01/24 08:23:57;;;;;;;58.40;4.03;;;1.40;1.00;;;;;;5073874;28;20311;-69
2021/01/24 08:26:25;;;;;;;60.00;5.07;;;1.40;1.00;;;;;;5073591;28;20251;-69
2021/01/24 08:28:51;;;;;;;57.42;4.47;;;1.40;1.00;;;;;;5073720;28;20252;-69
2021/01/24 08:31:19;;;;;;;57.58;4.05;;;1.40;1.00;;;;;;5073633;28;20235;-69
2021/01/24 08:33:47;;;;;;;55.70;3.55;;;1.40;1.00;;;;;;5073522;28;20559;-69
2021/01/24 08:36:16;;;;;;;58.47;4.55;;;1.30;1.00;;;;;;5073781;28;20229;-69
2021/01/24 08:38:44;;;;;;;57.50;4.45;;;1.30;1.00;;;;;;5073689;28;20704;-69
2021/01/24 08:41:11;;;;;;;57.75;3.67;;;1.40;1.00;;;;;;5073782;28;20209;-69
2021/01/24 08:43:38;;;;;;;57.13;3.80;;;1.50;1.00;;;;;;5073302;28;20264;-69
2021/01/24 08:46:25;;;;;;;56.88;4.00;;;1.60;1.00;;;;;;5073526;28;20204;-69
2021/01/24 08:49:00;;;;;;;60.15;4.25;;;1.80;1.00;;;;;;5073551;28;20213;-69
2021/01/24 08:51:40;;;;;;;58.45;3.85;;;2.10;1.00;;;;;;5073367;28;20243;-69
2021/01/24 08:54:22;;;;;;;58.47;3.50;;;2.40;1.00;;;;;;5073094;28;20229;-69
2021/01/24 08:56:49;;;;;;;56.13;3.38;;;2.60;1.00;;;;;;5073391;28;20225;-69
2021/01/24 08:59:20;;;;;;;58.13;4.03;;;2.60;1.00;;;;;;5073380;28;20239;-69
2021/01/24 09:01:47;;;;;;;57.42;3.70;;;2.50;1.00;;;;;;5073015;28;20259;-69
2021/01/24 09:04:25;;;;;;;56.35;4.03;;;2.30;1.00;;;;;;5072936;28;20229;-69
2021/01/24 09:07:11;;;;;;;57.05;3.70;;;2.30;1.00;;;;;;5072762;28;20205;-69
2021/01/24 09:09:42;;;;;;;56.72;3.60;;;2.20;1.00;;;;;;5073390;28;20205;-69
2021/01/24 09:12:10;;;;;;;57.80;3.85;;;2.20;1.00;;;;;;5073485;28;20247;-69
2021/01/24 09:14:37;;;;;;;56.53;3.53;;;2.20;1.00;;;;;;5072730;28;20229;-69
2021/01/24 09:17:09;;;;;;;57.30;4.25;;;2.20;1.00;;;;;;5071785;28;20263;-66
2021/01/24 09:19:37;;;;;;;58.88;4.15;;;2.20;1.00;;;;;;5073019;28;20223;-67
2021/01/24 09:22:05;;;;;;;56.33;3.75;;;2.20;1.00;;;;;;5073421;28;20227;-67
2021/01/24 09:24:31;;;;;;;59.55;4.43;;;2.20;1.00;;;;;;5073045;28;20293;-67
2021/01/24 09:26:59;;;;;;;58.22;3.80;;;2.20;1.00;;;;;;5072796;28;20201;-67
2021/01/24 09:29:25;;;;;;;56.65;3.80;;;2.20;1.00;;;;;;5073162;28;20204;-69
2021/01/24 09:31:51;;;;;;;57.20;4.15;;;2.20;1.00;;;;;;5072721;28;20215;-67
2021/01/24 09:34:18;;;;;;;59.00;4.18;;;2.20;1.00;;;;;;5072859;28;20236;-69
2021/01/24 09:36:44;;;;;;;57.70;4.00;;;2.10;1.00;;;;;;5073130;28;20596;-70
2021/01/24 09:39:11;;;;;;;57.00;3.95;;;2.10;1.00;;;;;;5072869;28;20201;-67
2021/01/24 09:41:37;;;;;;;60.78;4.65;;;2.10;1.00;;;;;;5072769;28;20209;-70
2021/01/24 09:44:05;;;;;;;59.65;4.65;;;2.10;1.00;;;;;;5072554;28;20270;-67
2021/01/24 09:46:32;;;;;;;57.10;4.18;;;2.10;1.00;;;;;;5072740;28;20285;-67
2021/01/24 09:48:59;;;;;;;57.13;3.85;;;2.10;1.00;;;;;;5072717;28;20213;-67
2021/01/24 09:51:26;;;;;;;57.25;4.30;;;2.10;1.00;;;;;;5072679;28;20275;-67
2021/01/24 09:53:53;;;;;;;58.40;3.97;;;2.20;1.00;;;;;;5072298;28;20225;-67
2021/01/24 09:56:20;;;;;;;58.85;4.30;;;2.20;1.00;;;;;;5072139;28;20328;-67
2021/01/24 09:58:47;;;;;;;59.45;5.13;;;2.20;1.00;;;;;;5072429;28;20212;-67
2021/01/24 10:01:14;;;;;;;57.95;4.50;;;2.30;1.00;;;;;;5071922;28;20205;-67
2021/01/24 10:03:40;;;;;;;58.90;3.80;;;2.30;1.00;;;;;;5072253;28;20229;-67
2021/01/24 10:06:08;;;;;;;57.53;4.57;;;2.30;1.00;;;;;;5072523;28;20201;-67
2021/01/24 10:08:34;;;;;;;57.90;4.57;;;2.40;1.00;;;;;;5072691;28;20208;-67
2021/01/24 10:11:00;;;;;;;58.97;4.80;;;2.50;1.00;;;;;;5072329;28;20236;-67
2021/01/24 10:13:27;;;;;;;58.90;5.40;;;2.50;1.00;;;;;;5071909;28;20228;-67
2021/01/24 10:15:54;;;;;;;59.22;5.50;;;2.60;1.00;;;;;;5072135;28;20225;-67
2021/01/24 10:18:22;;;;;;;60.60;7.30;;;2.60;1.00;;;;;;5071832;28;20204;-68
2021/01/24 10:20:49;;;;;;;63.05;5.40;;;2.70;1.00;;;;;;5072025;28;20207;-68
2021/01/24 10:23:17;;;;;;;58.95;5.32;;;2.70;1.00;;;;;;5071664;28;20229;-68
2021/01/24 10:25:44;;;;;;;58.55;5.00;;;2.80;1.00;;;;;;5071682;28;20297;-68
2021/01/24 10:28:10;;;;;;;59.58;6.20;;;2.90;1.00;;;;;;5072022;28;20258;-68
2021/01/24 10:30:36;;;;;;;63.55;5.05;;;3.00;1.00;;;;;;5071698;28;20241;-68
2021/01/24 10:33:03;;;;;;;58.47;5.30;;;3.00;1.00;;;;;;5071488;28;20232;-68
2021/01/24 10:35:30;;;;;;;57.78;5.00;;;3.10;1.00;;;;;;5071603;28;20215;-68
2021/01/24 10:37:56;;;;;;;58.97;4.65;;;3.10;1.00;;;;;;5071708;28;20217;-68
2021/01/24 10:40:22;;;;;;;59.20;5.72;;;3.20;1.00;;;;;;5071524;28;20580;-68
2021/01/24 10:42:49;;;;;;;59.75;4.68;;;3.20;1.00;;;;;;5071703;28;20244;-68
2021/01/24 10:45:16;;;;;;;57.72;4.95;;;3.30;1.00;;;;;;5071783;28;20212;-68
2021/01/24 10:47:42;;;;;;;58.60;4.20;;;3.50;1.00;;;;;;5071613;28;20205;-68
2021/01/24 10:50:10;;;;;;;57.92;4.03;;;3.80;1.00;;;;;;5071594;28;20293;-68
2021/01/24 10:52:37;;;;;;;61.58;4.55;;;4.10;1.00;;;;;;5071397;28;20208;-68
2021/01/24 10:55:04;;;;;;;57.65;4.15;;;4.40;1.00;;;;;;5071256;28;20236;-68
2021/01/24 10:57:30;;;;;;;59.80;4.40;;;4.70;1.00;;;;;;5071525;28;20220;-68
2021/01/24 10:59:57;;;;;;;58.40;4.18;;;5.00;1.00;;;;;;5071628;28;20204;-68
2021/01/24 11:02:23;;;;;;;56.65;3.33;;;5.10;1.00;;;;;;5071566;28;20236;-68
2021/01/24 11:04:49;;;;;;;57.92;3.97;;;4.80;1.00;;;;;;5071341;28;20221;-68
2021/01/24 11:07:16;;;;;;;57.85;4.07;;;4.60;1.00;;;;;;5071378;28;20291;-68
2021/01/24 11:09:44;;;;;;;57.67;4.13;;;4.50;1.00;;;;;;5071224;28;20759;-68
2021/01/24 11:12:10;;;;;;;57.20;4.18;;;4.50;1.00;;;;;;5071261;28;20236;-68
2021/01/24 11:14:37;;;;;;;57.35;3.60;;;4.50;1.00;;;;;;5071485;28;20311;-68
2021/01/24 11:17:03;;;;;;;56.97;3.80;;;4.50;1.00;;;;;;5071250;28;20628;-68
2021/01/24 11:19:29;;;;;;;56.95;3.38;;;4.60;1.00;;;;;;5071193;28;20216;-67
2021/01/24 11:21:56;;;;;;;56.58;3.58;;;4.60;1.00;;;;;;5071158;28;20201;-68
2021/01/24 11:24:22;;;;;;;57.45;3.90;;;4.50;1.00;;;;;;5072095;28;20264;-68
2021/01/24 11:26:50;;;;;;;56.55;3.22;;;4.50;1.00;;;;;;5075034;28;20240;-68
2021/01/24 11:29:16;;;;;;;57.55;4.20;;;4.60;1.00;;;;;;5074974;28;20212;-68
2021/01/24 11:31:43;;;;;;;57.63;4.00;;;4.60;1.00;;;;;;5075015;28;20205;-68
2021/01/24 11:34:09;;;;;;;59.50;3.25;;;4.60;1.00;;;;;;5074551;28;20229;-68
2021/01/24 11:36:35;;;;;;;57.30;3.58;;;4.60;1.00;;;;;;5074763;28;20225;-68
2021/01/24 11:39:02;;;;;;;57.95;4.00;;;4.60;1.00;;;;;;5074653;28;20638;-68
2021/01/24 11:41:28;;;;;;;57.75;4.13;;;4.60;1.00;;;;;;5074898;28;20204;-67
2021/01/24 11:43:55;;;;;;;58.85;4.15;;;4.60;1.00;;;;;;5074089;28;20236;-68
2021/01/24 11:46:21;;;;;;;56.83;3.58;;;4.60;1.00;;;;;;5074011;28;20560;-68
2021/01/24 11:48:48;;;;;;;56.30;3.83;;;4.50;1.00;;;;;;5074383;28;20736;-67
2021/01/24 11:51:14;;;;;;;57.45;3.60;;;4.50;1.00;;;;;;5074443;28;20210;-68
2021/01/24 11:53:41;;;;;;;56.72;3.80;;;4.50;1.00;;;;;;5074202;28;20229;-68
2021/01/24 11:56:07;;;;;;;57.80;3.20;;;4.50;1.00;;;;;;5074497;28;20543;-68
2021/01/24 11:58:34;;;;;;;59.22;3.40;;;4.40;1.00;;;;;;5074384;28;20231;-68
2021/01/24 12:01:01;;;;;;;56.45;3.17;;;4.40;1.00;;;;;;5074318;28;20207;-67
2021/01/24 12:03:27;;;;;;;56.95;4.00;;;4.30;1.00;;;;;;5074104;28;20232;-68
2021/01/24 12:05:54;;;;;;;57.25;3.95;;;4.20;1.00;;;;;;5074194;28;20211;-68
2021/01/24 12:08:20;;;;;;;56.22;3.67;;;4.20;1.00;;;;;;5074331;28;20201;-68
2021/01/24 12:10:46;;;;;;;56.47;3.80;;;4.30;1.00;;;;;;5074223;28;20205;-68
2021/01/24 12:13:13;;;;;;;57.42;3.78;;;4.30;1.00;;;;;;5073964;28;20286;-68
2021/01/24 12:15:39;;;;;;;56.20;3.60;;;4.30;1.00;;;;;;5074008;28;20212;-68
2021/01/24 12:18:06;;;;;;;58.50;3.72;;;4.30;1.00;;;;;;5074064;28;20236;-67
2021/01/24 12:20:33;;;;;;;58.53;3.83;;;4.30;1.00;;;;;;5073946;28;20209;-68
2021/01/24 12:22:59;;;;;;;57.72;4.40;;;4.30;1.00;;;;;;5073721;28;20312;-68
2021/01/24 12:25:25;;;;;;;56.63;3.28;;;4.30;1.00;;;;;;5074064;28;20237;-68
2021/01/24 12:27:52;;;;;;;58.20;3.55;;;4.40;1.00;;;;;;5073911;28;20596;-68
2021/01/24 12:30:19;;;;;;;59.72;3.90;;;4.50;1.00;;;;;;5073852;28;20213;-68
2021/01/24 12:32:45;;;;;;;59.67;4.80;;;4.40;1.00;;;;;;5073546;28;20243;-68
2021/01/24 12:35:13;;;;;;;58.17;3.70;;;4.50;1.00;;;;;;5073580;28;20213;-68
2021/01/24 12:37:40;;;;;;;57.72;3.88;;;4.50;1.00;;;;;;5073089;28;20224;-68
2021/01/24 12:40:08;;;;;;;57.17;4.05;;;4.40;1.00;;;;;;5073784;28;20205;-68
2021/01/24 12:42:34;;;;;;;61.33;5.03;;;4.40;1.00;;;;;;5073547;28;20278;-68
2021/01/24 12:45:01;;;;;;;56.83;3.85;;;4.40;1.00;;;;;;5073474;28;20254;-69
2021/01/24 12:47:27;;;;;;;56.72;3.50;;;4.40;1.00;;;;;;5073683;28;20201;-69
2021/01/24 12:49:54;;;;;;;61.13;3.63;;;4.40;1.00;;;;;;5073775;28;20208;-69
2021/01/24 12:52:21;;;;;;;56.72;3.78;;;4.40;1.00;;;;;;5073329;28;20201;-68
2021/01/24 12:54:47;;;;;;;56.88;3.47;;;4.40;1.00;;;;;;5073444;28;20231;-69
2021/01/24 12:57:13;;;;;;;57.25;3.95;;;4.40;1.00;;;;;;5073288;28;20248;-68
2021/01/24 12:59:42;;;;;;;56.67;3.38;;;4.40;1.00;;;;;;5073724;28;20208;-69